sensor_id;sensor_type;location;lat;lon;timestamp;P1;durP1;ratioP1;P2;durP2;ratioP2
42414;SDS011;28058;46.344;17.786;2023-07-16T04:36:33;10.40;;;7.60;;
42414;SDS011;28058;46.344;17.786;2023-07-16T04:39:00;9.85;;;7.07;;
42414;SDS011;28058;46.344;17.786;2023-07-16T04:41:27;7.70;;;6.95;;
42414;SDS011;28058;46.344;17.786;2023-07-16T04:43:54;8.23;;;7.10;;
42414;SDS011;28058;46.344;17.786;2023-07-16T04:46:21;8.18;;;6.82;;
42414;SDS011;28058;46.344;17.786;2023-07-16T04:48:48;12.75;;;6.85;;
42414;SDS011;28058;46.344;17.786;2023-07-16T04:51:15;8.82;;;6.90;;
42414;SDS011;28058;46.344;17.786;2023-07-16T04:53:42;7.70;;;6.45;;
42414;SDS011;28058;46.344;17.786;2023-07-16T04:56:12;9.52;;;6.70;;
42414;SDS011;28058;46.344;17.786;2023-07-16T04:58:41;8.63;;;6.43;;
42414;SDS011;28058;46.344;17.786;2023-07-16T05:01:09;8.35;;;6.18;;
42414;SDS011;28058;46.344;17.786;2023-07-16T05:03:36;7.28;;;6.18;;
42414;SDS011;28058;46.344;17.786;2023-07-16T05:06:03;9.80;;;6.30;;
42414;SDS011;28058;46.344;17.786;2023-07-16T05:08:31;9.88;;;6.50;;
42414;SDS011;28058;46.344;17.786;2023-07-16T05:10:58;7.93;;;6.30;;
42414;SDS011;28058;46.344;17.786;2023-07-16T05:13:25;9.27;;;6.78;;
42414;SDS011;28058;46.344;17.786;2023-07-16T05:15:53;7.13;;;6.20;;
42414;SDS011;28058;46.344;17.786;2023-07-16T05:18:20;6.57;;;5.90;;
42414;SDS011;28058;46.344;17.786;2023-07-16T05:20:48;9.10;;;5.75;;
42414;SDS011;28058;46.344;17.786;2023-07-16T05:23:15;8.73;;;5.47;;
42414;SDS011;28058;46.344;17.786;2023-07-16T05:25:46;9.55;;;6.03;;
42414;SDS011;28058;46.344;17.786;2023-07-16T05:28:17;9.02;;;6.18;;
42414;SDS011;28058;46.344;17.786;2023-07-16T05:30:45;10.82;;;5.78;;
42414;SDS011;28058;46.344;17.786;2023-07-16T05:33:12;9.07;;;6.35;;
42414;SDS011;28058;46.344;17.786;2023-07-16T05:35:40;9.50;;;7.18;;
42414;SDS011;28058;46.344;17.786;2023-07-16T05:38:07;8.35;;;6.22;;
42414;SDS011;28058;46.344;17.786;2023-07-16T05:40:34;6.30;;;5.70;;
42414;SDS011;28058;46.344;17.786;2023-07-16T05:43:01;7.45;;;6.60;;
42414;SDS011;28058;46.344;17.786;2023-07-16T05:45:28;8.73;;;7.03;;
42414;SDS011;28058;46.344;17.786;2023-07-16T05:47:55;9.13;;;7.45;;
42414;SDS011;28058;46.344;17.786;2023-07-16T05:50:22;8.90;;;6.53;;
42414;SDS011;28058;46.344;17.786;2023-07-16T05:52:49;8.35;;;6.88;;
42414;SDS011;28058;46.344;17.786;2023-07-16T05:55:17;10.77;;;7.03;;
42414;SDS011;28058;46.344;17.786;2023-07-16T05:57:44;9.48;;;7.20;;
42414;SDS011;28058;46.344;17.786;2023-07-16T06:00:11;9.48;;;7.45;;
42414;SDS011;28058;46.344;17.786;2023-07-16T06:02:39;9.27;;;8.38;;
42414;SDS011;28058;46.344;17.786;2023-07-16T06:05:06;9.63;;;7.40;;
42414;SDS011;28058;46.344;17.786;2023-07-16T06:07:33;11.10;;;7.75;;
42414;SDS011;28058;46.344;17.786;2023-07-16T06:10:00;10.48;;;7.57;;
42414;SDS011;28058;46.344;17.786;2023-07-16T06:12:27;8.02;;;6.75;;
42414;SDS011;28058;46.344;17.786;2023-07-16T06:14:54;8.52;;;7.65;;
42414;SDS011;28058;46.344;17.786;2023-07-16T06:17:21;10.68;;;6.75;;
42414;SDS011;28058;46.344;17.786;2023-07-16T06:19:48;9.85;;;7.05;;
42414;SDS011;28058;46.344;17.786;2023-07-16T06:22:17;10.40;;;6.97;;
42414;SDS011;28058;46.344;17.786;2023-07-16T06:24:44;10.05;;;7.15;;
42414;SDS011;28058;46.344;17.786;2023-07-16T06:27:11;8.65;;;7.75;;
42414;SDS011;28058;46.344;17.786;2023-07-16T06:29:38;9.05;;;7.40;;
42414;SDS011;28058;46.344;17.786;2023-07-16T06:32:05;11.27;;;7.90;;
42414;SDS011;28058;46.344;17.786;2023-07-16T06:34:33;7.70;;;6.90;;
42414;SDS011;28058;46.344;17.786;2023-07-16T06:37:00;8.35;;;7.55;;
42414;SDS011;28058;46.344;17.786;2023-07-16T06:39:27;8.57;;;7.38;;
42414;SDS011;28058;46.344;17.786;2023-07-16T06:41:54;8.00;;;7.20;;
42414;SDS011;28058;46.344;17.786;2023-07-16T06:44:22;7.40;;;6.70;;
42414;SDS011;28058;46.344;17.786;2023-07-16T06:46:49;8.07;;;7.10;;
42414;SDS011;28058;46.344;17.786;2023-07-16T06:49:16;10.27;;;6.88;;
42414;SDS011;28058;46.344;17.786;2023-07-16T06:51:44;9.20;;;6.88;;
42414;SDS011;28058;46.344;17.786;2023-07-16T06:54:11;7.88;;;6.65;;
42414;SDS011;28058;46.344;17.786;2023-07-16T06:56:38;8.30;;;6.47;;
42414;SDS011;28058;46.344;17.786;2023-07-16T06:59:04;7.57;;;6.20;;
42414;SDS011;28058;46.344;17.786;2023-07-16T07:01:31;7.78;;;6.50;;
42414;SDS011;28058;46.344;17.786;2023-07-16T07:03:59;11.75;;;6.72;;
42414;SDS011;28058;46.344;17.786;2023-07-16T07:06:27;6.53;;;5.88;;
42414;SDS011;28058;46.344;17.786;2023-07-16T07:08:54;6.85;;;5.82;;
42414;SDS011;28058;46.344;17.786;2023-07-16T07:11:21;10.43;;;6.55;;
42414;SDS011;28058;46.344;17.786;2023-07-16T07:13:48;10.02;;;5.95;;
42414;SDS011;28058;46.344;17.786;2023-07-16T07:16:17;9.10;;;6.30;;
42414;SDS011;28058;46.344;17.786;2023-07-16T21:02:46;10.00;;;7.70;;
42414;SDS011;28058;46.344;17.786;2023-07-16T21:05:15;11.48;;;7.03;;
42414;SDS011;28058;46.344;17.786;2023-07-16T21:07:42;9.45;;;7.72;;
42414;SDS011;28058;46.344;17.786;2023-07-16T21:10:09;8.82;;;7.13;;
42414;SDS011;28058;46.344;17.786;2023-07-16T21:12:38;10.07;;;7.28;;
42414;SDS011;28058;46.344;17.786;2023-07-16T21:15:06;8.70;;;7.25;;
42414;SDS011;28058;46.344;17.786;2023-07-16T21:17:35;8.65;;;7.55;;
42414;SDS011;28058;46.344;17.786;2023-07-16T21:20:02;11.18;;;7.78;;
42414;SDS011;28058;46.344;17.786;2023-07-16T21:22:31;11.20;;;8.20;;
42414;SDS011;28058;46.344;17.786;2023-07-16T21:24:58;12.70;;;7.88;;
42414;SDS011;28058;46.344;17.786;2023-07-16T21:27:29;8.75;;;6.72;;
42414;SDS011;28058;46.344;17.786;2023-07-16T21:29:58;12.70;;;7.20;;
42414;SDS011;28058;46.344;17.786;2023-07-16T21:32:26;8.32;;;7.25;;
42414;SDS011;28058;46.344;17.786;2023-07-16T21:34:53;8.55;;;7.28;;
42414;SDS011;28058;46.344;17.786;2023-07-16T21:37:20;9.77;;;7.72;;
42414;SDS011;28058;46.344;17.786;2023-07-16T21:39:47;10.88;;;7.30;;
42414;SDS011;28058;46.344;17.786;2023-07-16T21:42:14;9.63;;;7.50;;
42414;SDS011;28058;46.344;17.786;2023-07-16T21:44:41;9.35;;;7.20;;
42414;SDS011;28058;46.344;17.786;2023-07-16T21:47:08;9.57;;;7.50;;
42414;SDS011;28058;46.344;17.786;2023-07-16T21:49:36;8.43;;;7.50;;
42414;SDS011;28058;46.344;17.786;2023-07-16T21:52:03;8.52;;;7.50;;
42414;SDS011;28058;46.344;17.786;2023-07-16T21:54:34;9.93;;;7.78;;
42414;SDS011;28058;46.344;17.786;2023-07-16T21:57:01;12.32;;;7.10;;
42414;SDS011;28058;46.344;17.786;2023-07-16T21:59:30;10.18;;;7.68;;
42414;SDS011;28058;46.344;17.786;2023-07-16T22:01:57;10.32;;;7.35;;
42414;SDS011;28058;46.344;17.786;2023-07-16T22:04:24;8.57;;;7.25;;
42414;SDS011;28058;46.344;17.786;2023-07-16T22:06:52;7.82;;;7.03;;
42414;SDS011;28058;46.344;17.786;2023-07-16T22:09:19;10.52;;;7.30;;
42414;SDS011;28058;46.344;17.786;2023-07-16T22:11:46;12.63;;;7.93;;
42414;SDS011;28058;46.344;17.786;2023-07-16T22:14:15;8.10;;;7.30;;
42414;SDS011;28058;46.344;17.786;2023-07-16T22:16:42;8.43;;;7.07;;
42414;SDS011;28058;46.344;17.786;2023-07-16T22:19:10;8.00;;;6.60;;
42414;SDS011;28058;46.344;17.786;2023-07-16T22:21:55;9.70;;;7.03;;
42414;SDS011;28058;46.344;17.786;2023-07-16T22:24:22;7.97;;;7.10;;
42414;SDS011;28058;46.344;17.786;2023-07-16T22:26:49;9.73;;;7.47;;
42414;SDS011;28058;46.344;17.786;2023-07-16T22:29:16;8.77;;;6.75;;
42414;SDS011;28058;46.344;17.786;2023-07-16T22:31:43;7.68;;;6.88;;
42414;SDS011;28058;46.344;17.786;2023-07-16T22:34:10;9.02;;;6.65;;
42414;SDS011;28058;46.344;17.786;2023-07-16T22:36:39;10.25;;;7.10;;
42414;SDS011;28058;46.344;17.786;2023-07-16T22:39:06;9.88;;;7.10;;
42414;SDS011;28058;46.344;17.786;2023-07-16T22:41:33;9.35;;;7.53;;
42414;SDS011;28058;46.344;17.786;2023-07-16T22:44:02;10.13;;;6.88;;
42414;SDS011;28058;46.344;17.786;2023-07-16T22:46:29;8.68;;;7.00;;
42414;SDS011;28058;46.344;17.786;2023-07-16T22:48:56;13.15;;;7.25;;
42414;SDS011;28058;46.344;17.786;2023-07-16T22:51:23;7.60;;;6.75;;
42414;SDS011;28058;46.344;17.786;2023-07-16T22:53:50;8.85;;;7.00;;
42414;SDS011;28058;46.344;17.786;2023-07-16T22:56:17;8.60;;;7.20;;
42414;SDS011;28058;46.344;17.786;2023-07-16T22:58:44;8.70;;;7.05;;
42414;SDS011;28058;46.344;17.786;2023-07-16T23:01:11;9.18;;;6.78;;
42414;SDS011;28058;46.344;17.786;2023-07-16T23:03:38;12.35;;;6.55;;
42414;SDS011;28058;46.344;17.786;2023-07-16T23:06:05;11.32;;;6.82;;
42414;SDS011;28058;46.344;17.786;2023-07-16T23:08:32;11.57;;;7.93;;
42414;SDS011;28058;46.344;17.786;2023-07-16T23:11:01;7.90;;;7.10;;
42414;SDS011;28058;46.344;17.786;2023-07-16T23:13:29;10.05;;;7.10;;
42414;SDS011;28058;46.344;17.786;2023-07-16T23:15:56;14.68;;;6.78;;
42414;SDS011;28058;46.344;17.786;2023-07-16T23:18:24;7.15;;;6.50;;
42414;SDS011;28058;46.344;17.786;2023-07-16T23:20:52;9.48;;;6.78;;
42414;SDS011;28058;46.344;17.786;2023-07-16T23:23:20;8.32;;;6.88;;
42414;SDS011;28058;46.344;17.786;2023-07-16T23:25:49;9.52;;;6.72;;
42414;SDS011;28058;46.344;17.786;2023-07-16T23:28:16;8.95;;;7.07;;
42414;SDS011;28058;46.344;17.786;2023-07-16T23:30:44;11.15;;;6.60;;
42414;SDS011;28058;46.344;17.786;2023-07-16T23:33:12;9.13;;;6.90;;
42414;SDS011;28058;46.344;17.786;2023-07-16T23:35:40;7.18;;;6.47;;
42414;SDS011;28058;46.344;17.786;2023-07-16T23:38:07;8.27;;;6.60;;
42414;SDS011;28058;46.344;17.786;2023-07-16T23:40:34;8.73;;;6.75;;
42414;SDS011;28058;46.344;17.786;2023-07-16T23:43:01;7.13;;;6.40;;
42414;SDS011;28058;46.344;17.786;2023-07-16T23:45:28;7.15;;;6.45;;
42414;SDS011;28058;46.344;17.786;2023-07-16T23:47:55;12.15;;;7.18;;
42414;SDS011;28058;46.344;17.786;2023-07-16T23:50:22;11.05;;;8.10;;
42414;SDS011;28058;46.344;17.786;2023-07-16T23:52:49;10.25;;;7.97;;
42414;SDS011;28058;46.344;17.786;2023-07-16T23:55:18;12.90;;;8.75;;
42414;SDS011;28058;46.344;17.786;2023-07-16T23:57:45;10.68;;;8.43;;
